sensor_id;sensor_type;location;lat;lon;timestamp;pressure;altitude;pressure_sealevel;temperature;humidity
57114;BME280;42994;51.606;9.988;2023-11-21T00:00:01;98716.38;;;5.81;100.00
57114;BME280;42994;51.606;9.988;2023-11-21T00:02:38;98730.00;;;5.62;100.00
57114;BME280;42994;51.606;9.988;2023-11-21T00:05:06;98717.22;;;5.32;100.00
57114;BME280;42994;51.606;9.988;2023-11-21T00:07:33;98715.72;;;5.22;100.00
57114;BME280;42994;51.606;9.988;2023-11-21T00:10:00;98719.03;;;5.32;100.00
57114;BME280;42994;51.606;9.988;2023-11-21T00:12:28;98720.03;;;5.31;100.00
57114;BME280;42994;51.606;9.988;2023-11-21T00:14:56;98722.53;;;5.49;100.00
57114;BME280;42994;51.606;9.988;2023-11-21T00:17:23;98712.06;;;5.39;100.00
57114;BME280;42994;51.606;9.988;2023-11-21T00:19:49;98709.56;;;5.29;100.00
57114;BME280;42994;51.606;9.988;2023-11-21T00:22:17;98712.22;;;5.21;100.00
57114;BME280;42994;51.606;9.988;2023-11-21T00:24:44;98707.41;;;5.25;100.00
57114;BME280;42994;51.606;9.988;2023-11-21T00:27:11;98712.69;;;4.92;100.00
57114;BME280;42994;51.606;9.988;2023-11-21T00:29:37;98715.69;;;5.05;100.00
57114;BME280;42994;51.606;9.988;2023-11-21T00:32:06;98729.19;;;5.28;100.00
57114;BME280;42994;51.606;9.988;2023-11-21T00:34:32;98731.34;;;5.25;100.00
57114;BME280;42994;51.606;9.988;2023-11-21T00:37:00;98730.50;;;5.24;100.00
57114;BME280;42994;51.606;9.988;2023-11-21T00:39:28;98731.34;;;5.25;100.00
57114;BME280;42994;51.606;9.988;2023-11-21T00:41:54;98722.03;;;5.20;100.00
57114;BME280;42994;51.606;9.988;2023-11-21T00:44:21;98724.66;;;5.12;100.00
57114;BME280;42994;51.606;9.988;2023-11-21T00:46:47;98734.13;;;4.98;100.00
57114;BME280;42994;51.606;9.988;2023-11-21T00:49:15;98734.28;;;5.05;100.00
57114;BME280;42994;51.606;9.988;2023-11-21T00:51:42;98745.38;;;4.92;100.00
57114;BME280;42994;51.606;9.988;2023-11-21T00:54:09;98738.06;;;4.94;100.00
57114;BME280;42994;51.606;9.988;2023-11-21T00:56:36;98741.75;;;5.01;100.00
57114;BME280;42994;51.606;9.988;2023-11-21T00:59:03;98734.44;;;5.04;100.00
57114;BME280;42994;51.606;9.988;2023-11-21T01:01:30;98732.19;;;4.66;100.00
57114;BME280;42994;51.606;9.988;2023-11-21T01:03:57;98741.69;;;4.85;100.00
57114;BME280;42994;51.606;9.988;2023-11-21T01:06:25;98752.22;;;4.95;100.00
57114;BME280;42994;51.606;9.988;2023-11-21T01:08:51;98743.94;;;4.63;100.00
57114;BME280;42994;51.606;9.988;2023-11-21T01:11:18;98751.81;;;4.81;100.00
57114;BME280;42994;51.606;9.988;2023-11-21T01:13:45;98755.13;;;4.75;100.00
57114;BME280;42994;51.606;9.988;2023-11-21T01:16:12;98757.72;;;4.67;100.00
57114;BME280;42994;51.606;9.988;2023-11-21T01:18:39;98756.44;;;4.71;100.00
57114;BME280;42994;51.606;9.988;2023-11-21T01:21:06;98760.91;;;4.71;100.00
57114;BME280;42994;51.606;9.988;2023-11-21T01:23:35;98767.75;;;4.81;100.00
57114;BME280;42994;51.606;9.988;2023-11-21T01:26:02;98765.91;;;4.74;100.00
57114;BME280;42994;51.606;9.988;2023-11-21T01:28:29;98765.09;;;4.81;100.00
57114;BME280;42994;51.606;9.988;2023-11-21T01:30:57;98763.25;;;4.74;100.00
57114;BME280;42994;51.606;9.988;2023-11-21T01:33:23;98759.47;;;4.85;100.00
57114;BME280;42994;51.606;9.988;2023-11-21T01:35:51;98757.13;;;4.39;100.00
57114;BME280;42994;51.606;9.988;2023-11-21T01:38:20;98759.59;;;4.06;100.00
57114;BME280;42994;51.606;9.988;2023-11-21T01:40:48;98777.53;;;4.38;100.00
57114;BME280;42994;51.606;9.988;2023-11-21T01:43:15;98784.94;;;4.61;100.00
57114;BME280;42994;51.606;9.988;2023-11-21T01:45:42;98782.13;;;4.71;100.00
57114;BME280;42994;51.606;9.988;2023-11-21T01:48:10;98787.28;;;4.72;100.00
57114;BME280;42994;51.606;9.988;2023-11-21T01:50:38;98777.25;;;4.50;100.00
57114;BME280;42994;51.606;9.988;2023-11-21T01:53:05;98776.75;;;3.94;100.00
57114;BME280;42994;51.606;9.988;2023-11-21T01:55:33;98809.13;;;4.23;100.00
57114;BME280;42994;51.606;9.988;2023-11-21T01:58:01;98812.94;;;4.55;100.00
57114;BME280;42994;51.606;9.988;2023-11-21T02:00:28;98818.13;;;4.65;100.00
57114;BME280;42994;51.606;9.988;2023-11-21T02:02:55;98817.88;;;4.50;100.00
57114;BME280;42994;51.606;9.988;2023-11-21T02:05:22;98811.59;;;4.51;100.00
57114;BME280;42994;51.606;9.988;2023-11-21T02:07:48;98815.63;;;4.63;100.00
57114;BME280;42994;51.606;9.988;2023-11-21T02:10:17;98819.16;;;4.72;100.00
57114;BME280;42994;51.606;9.988;2023-11-21T02:12:48;98823.44;;;4.65;100.00
57114;BME280;42994;51.606;9.988;2023-11-21T02:15:17;98821.19;;;4.44;100.00
57114;BME280;42994;51.606;9.988;2023-11-21T02:17:45;98827.63;;;4.41;100.00
57114;BME280;42994;51.606;9.988;2023-11-21T02:20:13;98835.72;;;4.66;100.00
57114;BME280;42994;51.606;9.988;2023-11-21T02:22:42;98844.59;;;4.75;100.00
57114;BME280;42994;51.606;9.988;2023-11-21T02:25:10;98841.44;;;4.79;100.00
57114;BME280;42994;51.606;9.988;2023-11-21T02:27:37;98831.97;;;4.77;100.00
57114;BME280;42994;51.606;9.988;2023-11-21T02:30:05;98835.44;;;4.43;100.00
57114;BME280;42994;51.606;9.988;2023-11-21T02:32:33;98830.38;;;4.58;100.00
57114;BME280;42994;51.606;9.988;2023-11-21T02:34:59;98831.47;;;4.73;100.00
57114;BME280;42994;51.606;9.988;2023-11-21T02:37:28;98821.50;;;4.75;100.00
57114;BME280;42994;51.606;9.988;2023-11-21T02:39:55;98815.84;;;4.70;100.00
57114;BME280;42994;51.606;9.988;2023-11-21T02:42:23;98817.47;;;4.63;100.00
57114;BME280;42994;51.606;9.988;2023-11-21T02:44:50;98823.56;;;4.55;100.00
57114;BME280;42994;51.606;9.988;2023-11-21T02:47:17;98813.00;;;4.37;100.00
57114;BME280;42994;51.606;9.988;2023-11-21T02:49:43;98816.06;;;4.24;100.00
57114;BME280;42994;51.606;9.988;2023-11-21T02:52:10;98820.75;;;4.31;100.00
57114;BME280;42994;51.606;9.988;2023-11-21T02:54:36;98822.41;;;4.23;100.00
57114;BME280;42994;51.606;9.988;2023-11-21T02:57:04;98831.75;;;3.92;100.00
57114;BME280;42994;51.606;9.988;2023-11-21T02:59:32;98833.50;;;3.83;100.00
57114;BME280;42994;51.606;9.988;2023-11-21T03:01:59;98838.13;;;3.81;100.00
57114;BME280;42994;51.606;9.988;2023-11-21T03:04:25;98848.97;;;3.70;100.00
57114;BME280;42994;51.606;9.988;2023-11-21T03:06:52;98849.53;;;3.99;100.00
57114;BME280;42994;51.606;9.988;2023-11-21T03:09:19;98852.41;;;4.24;100.00
57114;BME280;42994;51.606;9.988;2023-11-21T03:11:45;98846.91;;;3.99;100.00
57114;BME280;42994;51.606;9.988;2023-11-21T03:14:12;98858.09;;;4.11;100.00
57114;BME280;42994;51.606;9.988;2023-11-21T03:16:40;98856.34;;;4.20;100.00
57114;BME280;42994;51.606;9.988;2023-11-21T03:19:07;98865.00;;;4.22;100.00
57114;BME280;42994;51.606;9.988;2023-11-21T03:21:34;98871.34;;;4.29;100.00
57114;BME280;42994;51.606;9.988;2023-11-21T03:24:02;98861.41;;;4.31;100.00
57114;BME280;42994;51.606;9.988;2023-11-21T03:26:28;98861.16;;;4.42;100.00
57114;BME280;42994;51.606;9.988;2023-11-21T03:28:56;98864.47;;;4.45;100.00
57114;BME280;42994;51.606;9.988;2023-11-21T03:31:23;98861.78;;;4.36;100.00
57114;BME280;42994;51.606;9.988;2023-11-21T03:33:51;98848.13;;;4.31;100.00
57114;BME280;42994;51.606;9.988;2023-11-21T03:36:19;98856.38;;;4.02;100.00
57114;BME280;42994;51.606;9.988;2023-11-21T03:38:45;98857.16;;;3.94;100.00
57114;BME280;42994;51.606;9.988;2023-11-21T03:41:12;98862.22;;;3.88;100.00
57114;BME280;42994;51.606;9.988;2023-11-21T03:43:39;98864.72;;;3.71;100.00
57114;BME280;42994;51.606;9.988;2023-11-21T03:46:06;98870.09;;;3.97;100.00
57114;BME280;42994;51.606;9.988;2023-11-21T03:48:33;98879.78;;;3.89;100.00
57114;BME280;42994;51.606;9.988;2023-11-21T03:51:01;98885.13;;;3.71;100.00
57114;BME280;42994;51.606;9.988;2023-11-21T03:53:27;98896.56;;;3.89;100.00
57114;BME280;42994;51.606;9.988;2023-11-21T03:55:54;98898.81;;;3.84;100.00
57114;BME280;42994;51.606;9.988;2023-11-21T03:58:21;98901.47;;;3.84;100.00
57114;BME280;42994;51.606;9.988;2023-11-21T04:00:48;98895.88;;;3.87;100.00
57114;BME280;42994;51.606;9.988;2023-11-21T04:03:15;98894.50;;;4.01;100.00
57114;BME280;42994;51.606;9.988;2023-11-21T04:05:41;98888.25;;;4.10;100.00
57114;BME280;42994;51.606;9.988;2023-11-21T04:08:09;98892.66;;;4.19;100.00
57114;BME280;42994;51.606;9.988;2023-11-21T04:10:36;98881.97;;;4.11;100.00
57114;BME280;42994;51.606;9.988;2023-11-21T04:13:05;98886.75;;;4.08;100.00
57114;BME280;42994;51.606;9.988;2023-11-21T04:15:32;98895.25;;;4.11;100.00
57114;BME280;42994;51.606;9.988;2023-11-21T04:17:58;98902.06;;;4.14;100.00
57114;BME280;42994;51.606;9.988;2023-11-21T04:20:25;98892.44;;;4.13;100.00
57114;BME280;42994;51.606;9.988;2023-11-21T04:22:52;98895.53;;;4.08;100.00
57114;BME280;42994;51.606;9.988;2023-11-21T04:25:20;98889.03;;;3.66;100.00
57114;BME280;42994;51.606;9.988;2023-11-21T04:27:48;98904.94;;;3.66;100.00
57114;BME280;42994;51.606;9.988;2023-11-21T04:30:15;98908.47;;;3.57;100.00
57114;BME280;42994;51.606;9.988;2023-11-21T04:32:42;98927.88;;;3.58;100.00
57114;BME280;42994;51.606;9.988;2023-11-21T04:35:09;98951.31;;;3.80;100.00
57114;BME280;42994;51.606;9.988;2023-11-21T04:37:36;98961.56;;;3.93;100.00
57114;BME280;42994;51.606;9.988;2023-11-21T04:40:03;98962.31;;;4.03;100.00
57114;BME280;42994;51.606;9.988;2023-11-21T04:42:34;98949.94;;;4.12;100.00
57114;BME280;42994;51.606;9.988;2023-11-21T04:45:01;98963.06;;;4.14;100.00
57114;BME280;42994;51.606;9.988;2023-11-21T04:47:31;98954.97;;;4.15;100.00
57114;BME280;42994;51.606;9.988;2023-11-21T04:49:57;98952.00;;;4.18;100.00
57114;BME280;42994;51.606;9.988;2023-11-21T04:52:24;98948.88;;;4.23;100.00
57114;BME280;42994;51.606;9.988;2023-11-21T04:54:51;98948.00;;;3.96;100.00
57114;BME280;42994;51.606;9.988;2023-11-21T04:57:19;98950.03;;;4.02;100.00
57114;BME280;42994;51.606;9.988;2023-11-21T04:59:49;98966.41;;;4.16;100.00
57114;BME280;42994;51.606;9.988;2023-11-21T05:02:16;98964.41;;;4.18;100.00
57114;BME280;42994;51.606;9.988;2023-11-21T05:04:44;98972.81;;;3.77;100.00
57114;BME280;42994;51.606;9.988;2023-11-21T05:07:11;98986.09;;;3.95;100.00
57114;BME280;42994;51.606;9.988;2023-11-21T05:09:41;98999.13;;;4.07;100.00
57114;BME280;42994;51.606;9.988;2023-11-21T05:12:09;99011.34;;;4.17;100.00
57114;BME280;42994;51.606;9.988;2023-11-21T05:14:36;99035.94;;;4.37;100.00
57114;BME280;42994;51.606;9.988;2023-11-21T05:17:04;99047.38;;;4.38;100.00
57114;BME280;42994;51.606;9.988;2023-11-21T05:19:30;99057.63;;;4.33;100.00
57114;BME280;42994;51.606;9.988;2023-11-21T05:21:58;99055.78;;;4.33;100.00
57114;BME280;42994;51.606;9.988;2023-11-21T05:24:25;99060.25;;;4.51;100.00
57114;BME280;42994;51.606;9.988;2023-11-21T05:26:52;99072.31;;;4.63;100.00
57114;BME280;42994;51.606;9.988;2023-11-21T05:29:19;99084.00;;;4.52;100.00
57114;BME280;42994;51.606;9.988;2023-11-21T05:31:46;99083.84;;;4.54;100.00
57114;BME280;42994;51.606;9.988;2023-11-21T05:34:14;99081.66;;;4.67;100.00
57114;BME280;42994;51.606;9.988;2023-11-21T05:36:42;99083.88;;;4.72;100.00
57114;BME280;42994;51.606;9.988;2023-11-21T05:39:09;99088.50;;;4.70;100.00
57114;BME280;42994;51.606;9.988;2023-11-21T05:41:36;99098.97;;;4.71;100.00
57114;BME280;42994;51.606;9.988;2023-11-21T05:44:03;99094.78;;;4.69;100.00
57114;BME280;42994;51.606;9.988;2023-11-21T05:46:30;99095.78;;;4.68;100.00
57114;BME280;42994;51.606;9.988;2023-11-21T05:48:57;99086.00;;;4.68;100.00
57114;BME280;42994;51.606;9.988;2023-11-21T05:51:25;99088.66;;;4.68;100.00
57114;BME280;42994;51.606;9.988;2023-11-21T05:53:52;99089.41;;;4.78;100.00
57114;BME280;42994;51.606;9.988;2023-11-21T05:56:19;99086.44;;;4.81;100.00
57114;BME280;42994;51.606;9.988;2023-11-21T05:58:46;99078.09;;;4.76;100.00
57114;BME280;42994;51.606;9.988;2023-11-21T06:01:12;99078.47;;;4.81;100.00
57114;BME280;42994;51.606;9.988;2023-11-21T06:03:39;99065.84;;;4.84;100.00
57114;BME280;42994;51.606;9.988;2023-11-21T06:06:06;99071.16;;;4.84;100.00
57114;BME280;42994;51.606;9.988;2023-11-21T06:08:34;99079.66;;;4.87;100.00
57114;BME280;42994;51.606;9.988;2023-11-21T06:11:01;99093.81;;;4.88;100.00
57114;BME280;42994;51.606;9.988;2023-11-21T06:13:27;99095.59;;;4.87;100.00
57114;BME280;42994;51.606;9.988;2023-11-21T06:15:54;99093.47;;;4.91;100.00
57114;BME280;42994;51.606;9.988;2023-11-21T06:18:21;99095.00;;;4.93;100.00
57114;BME280;42994;51.606;9.988;2023-11-21T06:20:47;99109.13;;;4.94;100.00
57114;BME280;42994;51.606;9.988;2023-11-21T06:23:15;99126.56;;;4.96;100.00
57114;BME280;42994;51.606;9.988;2023-11-21T06:25:43;99130.06;;;4.97;100.00
57114;BME280;42994;51.606;9.988;2023-11-21T06:28:10;99140.03;;;4.95;100.00
57114;BME280;42994;51.606;9.988;2023-11-21T06:30:36;99142.81;;;4.93;100.00
57114;BME280;42994;51.606;9.988;2023-11-21T06:33:03;99153.31;;;4.95;100.00
57114;BME280;42994;51.606;9.988;2023-11-21T06:35:30;99155.44;;;4.91;100.00
57114;BME280;42994;51.606;9.988;2023-11-21T06:37:59;99164.75;;;4.95;100.00
57114;BME280;42994;51.606;9.988;2023-11-21T06:40:25;99155.63;;;4.98;100.00
57114;BME280;42994;51.606;9.988;2023-11-21T06:42:53;99158.13;;;4.99;100.00
57114;BME280;42994;51.606;9.988;2023-11-21T06:45:20;99154.28;;;4.94;100.00
57114;BME280;42994;51.606;9.988;2023-11-21T06:47:47;99161.47;;;5.01;100.00
57114;BME280;42994;51.606;9.988;2023-11-21T06:50:14;99158.66;;;5.03;100.00
57114;BME280;42994;51.606;9.988;2023-11-21T06:52:41;99163.97;;;5.03;100.00
57114;BME280;42994;51.606;9.988;2023-11-21T06:55:08;99162.88;;;5.06;100.00
57114;BME280;42994;51.606;9.988;2023-11-21T06:57:36;99169.84;;;5.07;100.00
57114;BME280;42994;51.606;9.988;2023-11-21T07:00:06;99167.31;;;5.05;100.00
57114;BME280;42994;51.606;9.988;2023-11-21T07:02:34;99159.34;;;5.05;100.00
57114;BME280;42994;51.606;9.988;2023-11-21T07:05:01;99167.31;;;5.05;100.00
57114;BME280;42994;51.606;9.988;2023-11-21T07:07:27;99171.38;;;5.09;100.00
57114;BME280;42994;51.606;9.988;2023-11-21T07:09:54;99164.66;;;5.05;100.00
57114;BME280;42994;51.606;9.988;2023-11-21T07:12:21;99160.03;;;5.07;100.00
57114;BME280;42994;51.606;9.988;2023-11-21T07:14:49;99162.91;;;5.14;100.00
57114;BME280;42994;51.606;9.988;2023-11-21T07:17:16;99164.59;;;5.15;100.00
57114;BME280;42994;51.606;9.988;2023-11-21T07:19:43;99159.50;;;5.22;100.00
57114;BME280;42994;51.606;9.988;2023-11-21T07:22:10;99180.75;;;5.22;100.00
57114;BME280;42994;51.606;9.988;2023-11-21T07:24:38;99183.56;;;5.20;100.00
57114;BME280;42994;51.606;9.988;2023-11-21T07:27:05;99175.13;;;5.25;100.00
57114;BME280;42994;51.606;9.988;2023-11-21T07:29:31;99182.72;;;5.37;100.00
57114;BME280;42994;51.606;9.988;2023-11-21T07:31:58;99189.47;;;5.32;100.00
57114;BME280;42994;51.606;9.988;2023-11-21T07:34:27;99190.00;;;5.35;100.00
57114;BME280;42994;51.606;9.988;2023-11-21T07:36:53;99195.19;;;5.37;100.00
57114;BME280;42994;51.606;9.988;2023-11-21T07:39:20;99203.19;;;5.45;100.00
57114;BME280;42994;51.606;9.988;2023-11-21T07:41:47;99218.47;;;5.43;100.00
57114;BME280;42994;51.606;9.988;2023-11-21T07:44:15;99221.81;;;5.45;100.00
57114;BME280;42994;51.606;9.988;2023-11-21T07:46:43;99233.28;;;5.46;100.00
57114;BME280;42994;51.606;9.988;2023-11-21T07:49:09;99227.13;;;5.45;100.00
57114;BME280;42994;51.606;9.988;2023-11-21T07:51:37;99240.97;;;5.49;100.00
57114;BME280;42994;51.606;9.988;2023-11-21T07:54:04;99241.03;;;5.57;100.00
57114;BME280;42994;51.606;9.988;2023-11-21T07:56:31;99244.81;;;5.54;100.00
57114;BME280;42994;51.606;9.988;2023-11-21T07:58:58;99240.88;;;5.58;100.00
57114;BME280;42994;51.606;9.988;2023-11-21T08:01:25;99236.94;;;5.63;100.00
57114;BME280;42994;51.606;9.988;2023-11-21T08:03:53;99244.75;;;5.64;100.00
57114;BME280;42994;51.606;9.988;2023-11-21T08:08:50;99242.25;;;5.63;100.00
57114;BME280;42994;51.606;9.988;2023-11-21T08:11:17;99250.75;;;5.66;100.00
57114;BME280;42994;51.606;9.988;2023-11-21T08:13:44;99254.88;;;5.61;100.00
57114;BME280;42994;51.606;9.988;2023-11-21T08:16:12;99254.88;;;5.61;100.00
57114;BME280;42994;51.606;9.988;2023-11-21T08:18:38;99252.88;;;5.63;100.00
57114;BME280;42994;51.606;9.988;2023-11-21T08:21:05;99256.06;;;5.66;100.00
57114;BME280;42994;51.606;9.988;2023-11-21T08:23:33;99249.44;;;5.70;100.00
57114;BME280;42994;51.606;9.988;2023-11-21T08:26:01;99256.34;;;5.81;100.00
57114;BME280;42994;51.606;9.988;2023-11-21T08:28:28;99259.00;;;5.81;100.00
57114;BME280;42994;51.606;9.988;2023-11-21T08:30:55;99263.84;;;5.86;100.00
57114;BME280;42994;51.606;9.988;2023-11-21T08:33:22;99266.75;;;5.74;100.00
57114;BME280;42994;51.606;9.988;2023-11-21T08:35:52;99264.63;;;5.78;100.00
57114;BME280;42994;51.606;9.988;2023-11-21T08:38:18;99267.50;;;5.85;100.00
57114;BME280;42994;51.606;9.988;2023-11-21T08:40:45;99271.16;;;5.84;100.00
57114;BME280;42994;51.606;9.988;2023-11-21T08:43:13;99275.72;;;5.91;100.00
57114;BME280;42994;51.606;9.988;2023-11-21T08:45:41;99263.66;;;5.79;100.00
57114;BME280;42994;51.606;9.988;2023-11-21T08:48:08;99274.75;;;5.74;100.00
57114;BME280;42994;51.606;9.988;2023-11-21T08:50:37;99289.56;;;5.77;100.00
57114;BME280;42994;51.606;9.988;2023-11-21T08:53:03;99295.78;;;5.86;100.00
57114;BME280;42994;51.606;9.988;2023-11-21T08:55:31;99297.22;;;5.98;100.00
57114;BME280;42994;51.606;9.988;2023-11-21T08:58:02;99299.81;;;5.90;100.00
57114;BME280;42994;51.606;9.988;2023-11-21T09:00:31;99309.72;;;5.97;100.00
57114;BME280;42994;51.606;9.988;2023-11-21T09:02:58;99307.06;;;5.97;100.00
57114;BME280;42994;51.606;9.988;2023-11-21T09:05:25;99314.56;;;5.84;100.00
57114;BME280;42994;51.606;9.988;2023-11-21T09:07:51;99322.22;;;5.87;100.00
57114;BME280;42994;51.606;9.988;2023-11-21T09:10:18;99326.78;;;5.95;100.00
57114;BME280;42994;51.606;9.988;2023-11-21T09:12:46;99324.38;;;6.02;100.00
57114;BME280;42994;51.606;9.988;2023-11-21T09:15:13;99332.34;;;6.02;100.00
57114;BME280;42994;51.606;9.988;2023-11-21T09:17:41;99339.81;;;5.98;100.00
57114;BME280;42994;51.606;9.988;2023-11-21T09:20:09;99345.06;;;6.08;100.00
57114;BME280;42994;51.606;9.988;2023-11-21T09:22:36;99348.16;;;6.03;100.00
57114;BME280;42994;51.606;9.988;2023-11-21T09:25:03;99349.16;;;6.02;100.00
57114;BME280;42994;51.606;9.988;2023-11-21T09:27:31;99353.63;;;6.02;100.00
57114;BME280;42994;51.606;9.988;2023-11-21T09:29:57;99361.19;;;6.06;100.00
57114;BME280;42994;51.606;9.988;2023-11-21T09:32:24;99358.28;;;6.00;100.00
57114;BME280;42994;51.606;9.988;2023-11-21T09:34:52;99355.84;;;6.06;100.00
57114;BME280;42994;51.606;9.988;2023-11-21T09:37:20;99369.22;;;6.14;100.00
57114;BME280;42994;51.606;9.988;2023-11-21T09:39:47;99365.34;;;6.09;100.00
57114;BME280;42994;51.606;9.988;2023-11-21T09:42:17;99359.50;;;6.05;100.00
57114;BME280;42994;51.606;9.988;2023-11-21T09:44:53;99368.00;;;6.09;100.00
57114;BME280;42994;51.606;9.988;2023-11-21T09:47:22;99369.75;;;6.18;100.00
57114;BME280;42994;51.606;9.988;2023-11-21T09:49:49;99377.28;;;6.23;100.00
57114;BME280;42994;51.606;9.988;2023-11-21T09:52:22;99384.41;;;6.22;100.00
57114;BME280;42994;51.606;9.988;2023-11-21T09:54:52;99386.00;;;6.15;100.00
57114;BME280;42994;51.606;9.988;2023-11-21T09:57:19;99393.00;;;6.16;100.00
57114;BME280;42994;51.606;9.988;2023-11-21T09:59:50;99397.72;;;6.22;100.00
57114;BME280;42994;51.606;9.988;2023-11-21T10:02:17;99398.47;;;6.32;100.00
57114;BME280;42994;51.606;9.988;2023-11-21T10:04:46;99395.44;;;6.27;100.00
57114;BME280;42994;51.606;9.988;2023-11-21T10:07:13;99392.03;;;6.17;100.00
57114;BME280;42994;51.606;9.988;2023-11-21T10:09:45;99398.88;;;6.20;100.00
57114;BME280;42994;51.606;9.988;2023-11-21T10:12:14;99407.31;;;6.15;100.00
57114;BME280;42994;51.606;9.988;2023-11-21T10:14:42;99409.38;;;6.21;100.00
57114;BME280;42994;51.606;9.988;2023-11-21T10:17:10;99420.22;;;6.28;100.00
57114;BME280;42994;51.606;9.988;2023-11-21T10:19:39;99420.06;;;6.29;100.00
57114;BME280;42994;51.606;9.988;2023-11-21T10:22:06;99416.28;;;6.32;100.00
57114;BME280;42994;51.606;9.988;2023-11-21T10:24:34;99420.00;;;6.21;100.00
57114;BME280;42994;51.606;9.988;2023-11-21T10:27:04;99421.53;;;6.24;100.00
57114;BME280;42994;51.606;9.988;2023-11-21T10:29:30;99424.72;;;6.09;100.00
57114;BME280;42994;51.606;9.988;2023-11-21T10:32:01;99423.66;;;6.02;100.00
57114;BME280;42994;51.606;9.988;2023-11-21T10:34:28;99432.78;;;6.00;100.00
57114;BME280;42994;51.606;9.988;2023-11-21T10:36:55;99438.03;;;6.09;100.00
57114;BME280;42994;51.606;9.988;2023-11-21T10:39:24;99430.97;;;6.00;100.00
57114;BME280;42994;51.606;9.988;2023-11-21T10:41:54;99460.00;;;6.11;100.00
57114;BME280;42994;51.606;9.988;2023-11-21T10:44:22;99451.66;;;6.06;100.00
57114;BME280;42994;51.606;9.988;2023-11-21T10:46:51;99459.25;;;6.01;100.00
57114;BME280;42994;51.606;9.988;2023-11-21T10:49:21;99462.50;;;6.13;100.00
57114;BME280;42994;51.606;9.988;2023-11-21T10:51:50;99463.03;;;5.99;100.00
57114;BME280;42994;51.606;9.988;2023-11-21T10:54:22;99473.38;;;6.02;100.00
57114;BME280;42994;51.606;9.988;2023-11-21T10:56:49;99469.44;;;6.06;100.00
57114;BME280;42994;51.606;9.988;2023-11-21T10:59:17;99458.88;;;5.96;100.00
57114;BME280;42994;51.606;9.988;2023-11-21T11:01:47;99471.50;;;6.12;100.00
57114;BME280;42994;51.606;9.988;2023-11-21T11:04:18;99476.44;;;6.25;100.00
57114;BME280;42994;51.606;9.988;2023-11-21T11:06:49;99483.81;;;6.13;100.00
57114;BME280;42994;51.606;9.988;2023-11-21T11:09:17;99481.53;;;6.00;100.00
57114;BME280;42994;51.606;9.988;2023-11-21T11:11:45;99485.03;;;6.01;100.00
57114;BME280;42994;51.606;9.988;2023-11-21T11:14:13;99484.06;;;5.92;100.00
57114;BME280;42994;51.606;9.988;2023-11-21T11:16:41;99505.22;;;5.93;100.00
57114;BME280;42994;51.606;9.988;2023-11-21T11:19:10;99516.25;;;5.99;100.00
57114;BME280;42994;51.606;9.988;2023-11-21T11:21:45;99515.19;;;5.91;100.00
57114;BME280;42994;51.606;9.988;2023-11-21T11:24:33;99521.81;;;6.05;100.00
57114;BME280;42994;51.606;9.988;2023-11-21T11:27:11;99518.81;;;5.90;100.00
57114;BME280;42994;51.606;9.988;2023-11-21T11:29:48;99513.91;;;5.86;100.00
57114;BME280;42994;51.606;9.988;2023-11-21T11:32:23;99526.59;;;5.74;100.00
57114;BME280;42994;51.606;9.988;2023-11-21T11:35:01;99529.19;;;5.84;100.00
57114;BME280;42994;51.606;9.988;2023-11-21T11:37:30;99525.56;;;5.85;100.00
57114;BME280;42994;51.606;9.988;2023-11-21T11:39:58;99532.25;;;5.89;100.00
57114;BME280;42994;51.606;9.988;2023-11-21T11:42:26;99547.94;;;5.92;100.00
57114;BME280;42994;51.606;9.988;2023-11-21T11:44:55;99544.59;;;5.90;100.00
57114;BME280;42994;51.606;9.988;2023-11-21T11:47:24;99535.19;;;5.95;100.00
57114;BME280;42994;51.606;9.988;2023-11-21T11:50:02;99541.06;;;5.89;100.00
57114;BME280;42994;51.606;9.988;2023-11-21T11:52:40;99541.69;;;5.83;100.00
57114;BME280;42994;51.606;9.988;2023-11-21T11:55:08;99544.63;;;5.80;100.00
57114;BME280;42994;51.606;9.988;2023-11-21T11:57:37;99547.28;;;5.80;100.00
57114;BME280;42994;51.606;9.988;2023-11-21T12:00:09;99547.06;;;5.64;100.00
57114;BME280;42994;51.606;9.988;2023-11-21T12:02:38;99539.16;;;5.54;100.00
57114;BME280;42994;51.606;9.988;2023-11-21T12:05:10;99531.66;;;5.39;100.00
57114;BME280;42994;51.606;9.988;2023-11-21T12:07:49;99546.19;;;5.45;100.00
57114;BME280;42994;51.606;9.988;2023-11-21T12:10:19;99543.88;;;5.60;100.00
57114;BME280;42994;51.606;9.988;2023-11-21T12:12:48;99538.97;;;5.65;100.00
57114;BME280;42994;51.606;9.988;2023-11-21T12:15:15;99537.47;;;5.53;100.00
57114;BME280;42994;51.606;9.988;2023-11-21T12:17:43;99525.72;;;5.55;100.00
57114;BME280;42994;51.606;9.988;2023-11-21T12:20:12;99524.34;;;5.51;100.00
57114;BME280;42994;51.606;9.988;2023-11-21T12:22:43;99524.16;;;5.63;100.00
57114;BME280;42994;51.606;9.988;2023-11-21T12:25:12;99528.31;;;5.65;100.00
57114;BME280;42994;51.606;9.988;2023-11-21T12:27:42;99516.91;;;5.55;100.00
57114;BME280;42994;51.606;9.988;2023-11-21T12:30:11;99503.69;;;5.63;100.00
57114;BME280;42994;51.606;9.988;2023-11-21T12:32:41;99509.34;;;5.78;100.00
57114;BME280;42994;51.606;9.988;2023-11-21T12:35:09;99508.53;;;5.77;100.00
57114;BME280;42994;51.606;9.988;2023-11-21T12:37:38;99510.16;;;5.88;100.00
57114;BME280;42994;51.606;9.988;2023-11-21T12:40:06;99502.75;;;5.82;100.00
57114;BME280;42994;51.606;9.988;2023-11-21T12:42:36;99497.00;;;5.87;100.00
57114;BME280;42994;51.606;9.988;2023-11-21T12:45:15;99488.00;;;5.70;100.00
57114;BME280;42994;51.606;9.988;2023-11-21T12:47:46;99486.91;;;5.63;100.00
57114;BME280;42994;51.606;9.988;2023-11-21T12:50:13;99484.97;;;5.83;100.00
57114;BME280;42994;51.606;9.988;2023-11-21T12:52:44;99484.72;;;5.76;100.00
57114;BME280;42994;51.606;9.988;2023-11-21T12:55:15;99481.03;;;5.87;100.00
57114;BME280;42994;51.606;9.988;2023-11-21T12:57:43;99468.91;;;5.74;100.00
57114;BME280;42994;51.606;9.988;2023-11-21T13:00:11;99467.97;;;5.66;100.00
57114;BME280;42994;51.606;9.988;2023-11-21T13:02:51;99467.53;;;5.70;100.00
57114;BME280;42994;51.606;9.988;2023-11-21T13:05:24;99461.47;;;5.78;100.00